Sieper, LA (71472)

8:44 PM CST on December 07, 2016 (GMT -0600)
Gardner | | Change Station
Active Advisory: Flood Warning

Elev 184 ft 31.27 °N, 92.68 °W | Updated 59 minutes ago

Overcast
Overcast
51.6 °F
Feels Like 51.6 °F
N
0.0
Wind Variable Wind from North
Gusts 0.0 mph

Today
High -- | Low -- °F
--% Chance of Precip.
Yesterday
High -- | Low -- °F
Precip. -- in
Pressure 30.19 in
Visibility 10.0 miles
Clouds Mostly Cloudy 600 ft
Overcast 6500 ft
Dew Point 50 °F
Humidity 94%
Rainfall 0.00 in
Snow Depth Not available.
6:57 AM 5:08 PM
First Quarter, 58% visible
METAR KBKB 080154Z AUTO VRB03KT 10SM BKN006 OVC065 12/11 A3010 RMK AO2 SLP222 T01170106 $
Pressure 30.19 in
Visibility 10.0 miles
Clouds Mostly Cloudy 600 ft
Overcast 6500 ft
Dew Point 50 °F
Humidity 94%
Rainfall 0.00 in
Snow Depth Not available.
6:57 AM 5:08 PM
First Quarter, 58% visible
METAR KBKB 080154Z AUTO VRB03KT 10SM BKN006 OVC065 12/11 A3010 RMK AO2 SLP222 T01170106 $

10-Day Weather Forecast

Almanac

Astronomy

Dec. 07, 2016 Rise Set
Actual Time
Civil Twilight
Nautical Twilight
Astronomical Twilight
Moon
Length of Visible Light
Length of Day
Tomorrow will be .
, % of the Moon is Illuminated

Today's Extremes

State Highs State Lows

Community

WunderPhotos

Upload Photos

1,956,259 photos uploaded!

WunderBlog® & News

Nearby

Air Quality

  Air Quality AQ Index Pollutant
Not available.

Snow Depth

Station Depth Elevation

Earthquake Activity

City Distance Mag. Time & Date
Minimum magnitude displayed is 2.5.

Coastal Water Temperatures

Place Temperature

Stations

Nearby Weather Stations

Station Location Temp. Windchill Dew Point Humidity Wind Precip. Elev Updated Type
                   

Watches & Warnings

Flood Warning
Issued: 7:23 PM CST Dec. 7, 2016 – National Weather Service

The Flood Warning continues for
the Calcasieu River near Glenmora.
* Until further notice... or until the warning is cancelled.
* At 6:45 PM Wednesday the stage was 13.2 feet.
* Minor flooding is occurring and minor flooding is forecast.
* Flood stage is 12.0 feet.
* Forecast... the river will continue rising to near 14.0 feet by
Saturday evening then begin falling.
* Impact... at stages near 14.0 feet... some roads upstream from
Glenmora, including strothers crossing Road near the community of
Calcasieu and Price Crossing Road near Hineston have two to three
feet of water over the Road and are subject to being closed.
Flooding of forested areas near the river will also occur.
* Impact... at stages near 12.0 feet... when the river is rising and
the gauge reading is forecast to reach 12 feet or higher. Roads
upstream from Glenmora, including strothers crossing Road near the
community of Calcasieu and Price Crossing Road near Hineston have
water on them and are subject to being closed. Also, flooding of
forested areas near the river will occur.


Lat... Lon 3113 9279 3090 9269 3090 9262 3105 9265 3115 9275